Rochelle, IL

7:56 PM CST on January 26, 2015 (GMT -0600)
MesoWest FLAGG1 IL US UPR | Change Station
CLOSE
Current Station
Personal Weather Station
Location: Ashton, IL
Elevation: 782 ft
Nearby Weather Stations
Active Advisory: Freezing Rain Advisory

Elev 782 ft 41.90 °N, 89.13 °W | Updated 1 hour ago

Overcast
Overcast
27 °F
Feels Like 27 °F
N
Wind Variable Wind from North
Gusts 0.0 mph

Today
High -- | Low -- °F
--% Chance of Precip.
Yesterday
High -- | Low -- °F
Precip. -- in
7:14 AM 5:03 PM
Waxing Crescent, 49% visible
Pressure 29.88 in
Visibility 4.0 miles
Clouds Overcast 300 ft
Windchill 27 °F
Dew Point Not available.
Humidity Not available.
Rainfall -999.00 in
Snow Depth Not available.
UV 0 out of 12
Pollen .10 out of 12
Air Quality Not available.
Flu Activity Not available.
METAR KRPJ 270135Z AUTO 15006KT 4SM BR OVC003 M03/M04 A2988 RMK AO2 T10351037

More Conditions Fewer Conditions

Pressure 29.88 in
Visibility 4.0 miles
Clouds Overcast 300 ft
Windchill 27 °F
Dew Point Not available.
Humidity Not available.
Rainfall -999.00 in
Snow Depth Not available.
UV 0 out of 12
Pollen .10 out of 12
Air Quality Not available.
Flu Activity Not available.
METAR KRPJ 270135Z AUTO 15006KT 4SM BR OVC003 M03/M04 A2988 RMK AO2 T10351037

More Conditions Fewer Conditions

10-Day Weather Forecast

Almanac

Astronomy

Jan. 26, 2015 Rise Set
Actual Time
Civil Twilight
Nautical Twilight
Astronomical Twilight
Moon
Length of Visible Light
Length of Day
Tomorrow will be .
, % of the Moon is Illuminated

Today's Extremes

State Highs State Lows

Community

WunderPhotos

Upload Photos

1,790,451 photos uploaded!

WunderBlogs® & News

Nearby

Air Quality

  Air Quality AQ Index Pollutant
Not available.

Snow Depth

Station Depth Elevation

Earthquake Activity

City Distance Mag. Time & Date
Minimum magnitude displayed is 2.5.

Coastal Water Temperatures

Place Temperature

Nearby Weather Stations